Time;durP1;ratioP1;P1;durP2;ratioP2;P2;SDS_P1;SDS_P2;PMS_P1;PMS_P2;Temp;Humidity;BMP_temperature;BMP_pressure;BME280_temperature;BME280_humidity;BME280_pressure;Samples;Min_cycle;Max_cycle;Signal;HPM_P1;HPM_P2
2021/07/12 00:02:06;;;;;;;22.92;12.63;;;;;;;;;;5965334;23;20030;-49
2021/07/12 00:04:32;;;;;;;23.75;13.10;;;;;;;;;;5963802;24;20038;-51
2021/07/12 00:06:59;;;;;;;33.05;14.98;;;;;;;;;;5964885;24;20023;-53
2021/07/12 00:09:27;;;;;;;28.70;13.60;;;;;;;;;;5962678;24;20038;-49
2021/07/12 00:11:53;;;;;;;25.45;14.43;;;;;;;;;;5965530;24;20049;-48
2021/07/12 00:14:20;;;;;;;28.70;14.88;;;;;;;;;;5961174;24;20062;-46
2021/07/12 00:16:47;;;;;;;26.88;14.45;;;;;;;;;;5965711;24;20041;-50
2021/07/12 00:19:14;;;;;;;26.20;14.60;;;;;;;;;;5963162;24;20019;-50
2021/07/12 00:21:41;;;;;;;27.77;15.15;;;;;;;;;;5965626;24;20045;-52
2021/07/12 00:24:07;;;;;;;24.67;13.75;;;;;;;;;;5966375;23;20043;-52
2021/07/12 00:26:35;;;;;;;24.02;13.60;;;;;;;;;;5964673;24;20026;-54
2021/07/12 00:29:04;;;;;;;29.98;15.05;;;;;;;;;;5965851;24;20022;-49
2021/07/12 00:31:31;;;;;;;28.45;15.38;;;;;;;;;;5939343;24;20030;-49
2021/07/12 00:33:57;;;;;;;27.17;14.82;;;;;;;;;;5969817;24;20061;-47
2021/07/12 00:36:23;;;;;;;25.10;14.55;;;;;;;;;;5951481;24;20042;-52
2021/07/12 00:38:50;;;;;;;29.27;15.07;;;;;;;;;;5963514;24;20078;-49
2021/07/12 00:41:16;;;;;;;28.60;16.08;;;;;;;;;;5981417;23;20043;-50
2021/07/12 00:43:44;;;;;;;30.48;15.95;;;;;;;;;;5943571;23;20030;-48
2021/07/12 00:46:11;;;;;;;31.83;16.20;;;;;;;;;;5962793;23;20038;-51
2021/07/12 00:48:38;;;;;;;27.08;14.85;;;;;;;;;;5965369;24;20045;-52
2021/07/12 00:51:04;;;;;;;26.83;15.18;;;;;;;;;;5963248;23;20031;-50
2021/07/12 00:53:31;;;;;;;27.77;14.30;;;;;;;;;;5965783;24;20037;-53
2021/07/12 00:55:57;;;;;;;28.60;15.38;;;;;;;;;;5964531;23;20045;-49
2021/07/12 00:58:28;;;;;;;25.33;14.30;;;;;;;;;;5968540;23;20045;-54
2021/07/12 01:00:56;;;;;;;28.75;15.05;;;;;;;;;;5963701;24;20045;-50
2021/07/12 01:03:23;;;;;;;;;;;;;;;;;;5964664;24;20030;-53
2021/07/12 01:05:50;;;;;;;27.40;13.93;;;;;;;;;;5962830;23;19924;-49
2021/07/12 01:08:16;;;;;;;26.05;14.48;;;;;;;;;;5965525;24;20038;-55
2021/07/12 01:10:47;;;;;;;28.02;14.75;;;;;;;;;;5963623;24;20038;-49
2021/07/12 01:13:24;;;;;;;30.45;14.70;;;;;;;;;;5968489;23;20054;-51
2021/07/12 01:15:56;;;;;;;25.13;14.35;;;;;;;;;;5963683;24;20056;-47
2021/07/12 01:18:27;;;;;;;25.77;13.98;;;;;;;;;;5961945;24;20041;-52
2021/07/12 01:21:13;;;;;;;26.98;14.70;;;;;;;;;;5939140;24;20053;-50
2021/07/12 01:23:49;;;;;;;27.85;14.93;;;;;;;;;;5936132;24;20038;-48
2021/07/12 01:26:32;;;;;;;23.30;13.93;;;;;;;;;;5939273;24;20051;-53
2021/07/12 01:29:08;;;;;;;25.98;14.20;;;;;;;;;;5960970;24;20139;-49
2021/07/12 01:31:58;;;;;;;26.38;14.13;;;;;;;;;;5940843;24;20045;-55
2021/07/12 01:34:30;;;;;;;25.08;13.77;;;;;;;;;;5987701;23;20033;-50
2021/07/12 01:37:01;;;;;;;27.25;14.45;;;;;;;;;;5963297;23;20038;-51
2021/07/12 01:39:30;;;;;;;27.23;14.73;;;;;;;;;;5968070;23;20034;-50
2021/07/12 01:41:58;;;;;;;25.58;14.15;;;;;;;;;;5963306;24;20049;-51
2021/07/12 01:44:33;;;;;;;24.23;14.10;;;;;;;;;;5967032;24;20041;-50
2021/07/12 01:47:02;;;;;;;24.77;14.13;;;;;;;;;;5967055;23;20042;-51
2021/07/12 01:49:34;;;;;;;25.52;14.27;;;;;;;;;;5965771;23;20034;-47
2021/07/12 01:52:03;;;;;;;27.48;14.20;;;;;;;;;;5968333;23;20081;-52
2021/07/12 01:54:31;;;;;;;23.27;13.48;;;;;;;;;;5963988;23;20030;-48
2021/07/12 01:56:59;;;;;;;25.65;13.35;;;;;;;;;;5968076;24;20046;-51
2021/07/12 01:59:26;;;;;;;;;;;;;;;;;;5963965;24;20034;-51
2021/07/12 02:01:55;;;;;;;24.02;12.38;;;;;;;;;;5948428;24;20026;-51
2021/07/12 02:04:26;;;;;;;25.10;12.95;;;;;;;;;;5957804;24;20128;-48
2021/07/12 02:06:54;;;;;;;26.17;13.38;;;;;;;;;;5968068;23;20045;-51
2021/07/12 02:09:21;;;;;;;22.88;12.27;;;;;;;;;;5961110;23;20113;-49
2021/07/12 02:11:48;;;;;;;30.92;12.90;;;;;;;;;;5964129;23;20030;-49
2021/07/12 02:14:17;;;;;;;23.52;12.88;;;;;;;;;;5961659;23;20041;-49
2021/07/12 02:16:44;;;;;;;23.60;12.52;;;;;;;;;;5964412;23;20045;-49
2021/07/12 02:19:10;;;;;;;24.50;12.40;;;;;;;;;;5961843;23;20038;-50
2021/07/12 02:21:38;;;;;;;22.55;13.10;;;;;;;;;;5964463;23;20042;-51
2021/07/12 02:24:06;;;;;;;22.55;12.70;;;;;;;;;;5965322;23;20100;-50
2021/07/12 02:26:34;;;;;;;;;;;;;;;;;;5964173;23;20034;-50
2021/07/12 02:29:02;;;;;;;21.27;12.02;;;;;;;;;;5961222;23;19937;-49
2021/07/12 02:31:29;;;;;;;22.38;12.45;;;;;;;;;;5966388;23;20060;-52
2021/07/12 02:33:56;;;;;;;25.25;12.20;;;;;;;;;;5962445;23;20041;-52
2021/07/12 02:36:23;;;;;;;20.85;11.85;;;;;;;;;;5989697;23;20049;-53
2021/07/12 02:38:50;;;;;;;21.35;11.77;;;;;;;;;;5965598;24;20050;-51
2021/07/12 02:41:19;;;;;;;23.48;12.90;;;;;;;;;;5962029;23;20030;-52
2021/07/12 02:43:46;;;;;;;22.75;12.38;;;;;;;;;;5968304;23;20037;-51
2021/07/12 02:46:13;;;;;;;24.30;12.65;;;;;;;;;;5963987;23;20049;-49
2021/07/12 02:48:39;;;;;;;24.77;12.50;;;;;;;;;;5965934;24;20042;-52
2021/07/12 02:51:11;;;;;;;21.17;12.25;;;;;;;;;;5962966;24;20034;-50
2021/07/12 02:53:41;;;;;;;21.90;12.05;;;;;;;;;;5964335;24;20041;-51
2021/07/12 02:56:08;;;;;;;20.40;11.82;;;;;;;;;;5964467;24;20031;-51
2021/07/12 02:58:37;;;;;;;20.93;11.17;;;;;;;;;;5965784;24;20034;-49
2021/07/12 03:01:04;;;;;;;18.95;11.23;;;;;;;;;;5964449;24;20045;-48
2021/07/12 03:03:31;;;;;;;21.60;12.18;;;;;;;;;;5989153;23;20036;-52
2021/07/12 03:06:01;;;;;;;20.08;11.70;;;;;;;;;;5963213;24;20054;-50
2021/07/12 03:08:31;;;;;;;19.80;11.63;;;;;;;;;;5965835;24;20030;-49
2021/07/12 03:11:00;;;;;;;20.88;10.90;;;;;;;;;;5963144;24;20053;-51
2021/07/12 03:13:26;;;;;;;;;;;;;;;;;;5989588;23;20046;-52
2021/07/12 03:15:55;;;;;;;18.52;10.55;;;;;;;;;;5960539;24;19913;-48
2021/07/12 03:18:23;;;;;;;21.00;10.93;;;;;;;;;;5965144;24;20026;-48
2021/07/12 03:20:50;;;;;;;20.52;11.43;;;;;;;;;;5963140;24;20109;-49
2021/07/12 03:23:17;;;;;;;21.30;11.70;;;;;;;;;;5967934;23;20026;-51
2021/07/12 03:25:47;;;;;;;20.73;11.27;;;;;;;;;;5966639;24;20041;-48
2021/07/12 03:28:14;;;;;;;19.88;11.48;;;;;;;;;;5961686;24;20026;-55
2021/07/12 03:30:42;;;;;;;22.23;10.73;;;;;;;;;;5967148;24;20042;-48
2021/07/12 03:33:10;;;;;;;19.20;11.07;;;;;;;;;;5963388;24;20038;-50
2021/07/12 03:35:41;;;;;;;22.02;10.88;;;;;;;;;;5969096;23;20116;-52
2021/07/12 03:38:08;;;;;;;22.02;11.23;;;;;;;;;;5986601;23;20128;-54
2021/07/12 03:40:34;;;;;;;18.77;10.95;;;;;;;;;;5968392;23;20038;-53
2021/07/12 03:43:02;;;;;;;20.73;10.82;;;;;;;;;;5963958;23;20041;-52
2021/07/12 03:45:29;;;;;;;22.10;10.80;;;;;;;;;;5965525;23;20032;-54
2021/07/12 03:47:55;;;;;;;21.48;11.23;;;;;;;;;;5964330;23;20045;-52
2021/07/12 03:50:28;;;;;;;17.88;10.07;;;;;;;;;;5967885;23;20038;-52
2021/07/12 03:52:54;;;;;;;20.95;11.00;;;;;;;;;;5961853;24;20046;-52
2021/07/12 03:55:23;;;;;;;20.42;10.82;;;;;;;;;;5966894;23;20027;-50
2021/07/12 03:57:49;;;;;;;19.50;10.50;;;;;;;;;;5983928;23;20022;-52
2021/07/12 04:00:21;;;;;;;18.20;10.48;;;;;;;;;;5967256;24;20041;-51
2021/07/12 04:02:48;;;;;;;25.23;11.48;;;;;;;;;;5983975;23;20109;-51
2021/07/12 04:05:16;;;;;;;19.23;10.68;;;;;;;;;;5964895;24;20042;-50
2021/07/12 04:07:44;;;;;;;21.73;11.02;;;;;;;;;;5961384;24;20048;-50
2021/07/12 04:10:12;;;;;;;19.08;10.38;;;;;;;;;;5961367;23;20030;-50
2021/07/12 04:12:39;;;;;;;19.40;9.90;;;;;;;;;;5962417;23;20038;-48
2021/07/12 04:15:06;;;;;;;19.70;10.70;;;;;;;;;;5961991;23;20030;-50
2021/07/12 04:17:33;;;;;;;18.02;10.35;;;;;;;;;;5963138;23;20070;-51
2021/07/12 04:20:01;;;;;;;19.17;10.73;;;;;;;;;;5960054;23;20034;-53
2021/07/12 04:22:30;;;;;;;20.93;11.23;;;;;;;;;;5967983;23;20097;-49
2021/07/12 04:24:57;;;;;;;21.50;10.55;;;;;;;;;;5959182;23;20358;-48
2021/07/12 04:27:24;;;;;;;18.03;10.13;;;;;;;;;;5965288;23;20041;-51
2021/07/12 04:29:50;;;;;;;18.95;10.15;;;;;;;;;;5963130;23;22372;-49
2021/07/12 04:32:17;;;;;;;19.85;10.65;;;;;;;;;;5965536;23;20030;-51
2021/07/12 04:34:43;;;;;;;18.90;10.75;;;;;;;;;;5964695;23;20069;-49
2021/07/12 04:37:10;;;;;;;19.67;10.55;;;;;;;;;;5965290;24;20053;-48
2021/07/12 04:39:36;;;;;;;20.58;10.60;;;;;;;;;;5961719;24;20038;-49
2021/07/12 04:42:04;;;;;;;23.38;11.23;;;;;;;;;;5965822;23;20036;-50
2021/07/12 04:44:31;;;;;;;16.85;10.90;;;;;;;;;;5961299;24;20098;-47
2021/07/12 04:46:59;;;;;;;18.67;10.55;;;;;;;;;;5967546;23;20022;-50
2021/07/12 04:49:26;;;;;;;21.77;11.30;;;;;;;;;;5965464;23;20116;-52
2021/07/12 04:51:52;;;;;;;18.45;10.93;;;;;;;;;;5963931;24;20045;-51
2021/07/12 04:54:19;;;;;;;21.15;11.70;;;;;;;;;;5962677;24;20042;-49
2021/07/12 04:56:45;;;;;;;19.13;11.05;;;;;;;;;;5987004;23;20128;-47
2021/07/12 04:59:14;;;;;;;18.73;10.90;;;;;;;;;;5966028;24;20030;-48
2021/07/12 05:01:41;;;;;;;21.40;10.73;;;;;;;;;;5963751;23;20094;-50
2021/07/12 05:04:08;;;;;;;20.83;11.23;;;;;;;;;;5964477;24;20035;-48
2021/07/12 05:06:35;;;;;;;19.88;11.02;;;;;;;;;;5964229;24;20026;-49
2021/07/12 05:09:04;;;;;;;18.52;10.73;;;;;;;;;;5967137;24;20023;-51
2021/07/12 05:11:31;;;;;;;18.58;10.52;;;;;;;;;;5965528;23;20049;-48
2021/07/12 05:13:58;;;;;;;21.08;12.35;;;;;;;;;;5967702;23;20038;-48
2021/07/12 05:16:26;;;;;;;27.08;12.43;;;;;;;;;;5968302;24;20023;-50
2021/07/12 05:18:56;;;;;;;18.88;11.60;;;;;;;;;;5979820;23;20112;-51
2021/07/12 05:21:22;;;;;;;18.88;11.43;;;;;;;;;;5972242;23;20044;-51
2021/07/12 05:23:49;;;;;;;23.25;11.65;;;;;;;;;;5973518;23;20041;-49
2021/07/12 05:26:15;;;;;;;19.27;11.18;;;;;;;;;;5980314;23;20026;-51
2021/07/12 05:28:42;;;;;;;23.40;13.00;;;;;;;;;;5970785;23;20087;-52
2021/07/12 05:31:09;;;;;;;28.35;14.13;;;;;;;;;;5968537;23;20034;-51
2021/07/12 05:33:39;;;;;;;25.35;14.13;;;;;;;;;;5976931;23;20041;-52
2021/07/12 05:36:05;;;;;;;28.70;15.27;;;;;;;;;;5971994;23;20511;-52
2021/07/12 05:38:32;;;;;;;29.13;16.25;;;;;;;;;;5966934;23;20026;-53
2021/07/12 05:40:59;;;;;;;30.83;16.95;;;;;;;;;;5978250;23;20061;-51
2021/07/12 05:43:25;;;;;;;25.67;14.65;;;;;;;;;;5966765;23;20121;-52
2021/07/12 05:45:52;;;;;;;29.40;15.25;;;;;;;;;;5972162;23;20154;-52
2021/07/12 05:48:19;;;;;;;29.52;15.90;;;;;;;;;;5992877;23;20069;-53
2021/07/12 05:50:47;;;;;;;31.42;16.65;;;;;;;;;;5974704;23;20049;-52
2021/07/12 05:53:15;;;;;;;29.33;14.27;;;;;;;;;;5971517;24;20064;-52
2021/07/12 05:55:41;;;;;;;36.20;17.55;;;;;;;;;;5978643;23;20060;-51
2021/07/12 05:58:07;;;;;;;30.10;15.55;;;;;;;;;;5968898;23;20073;-56
2021/07/12 06:00:34;;;;;;;25.67;14.48;;;;;;;;;;5986065;23;20057;-53
2021/07/12 06:03:04;;;;;;;29.73;16.10;;;;;;;;;;5971407;23;20034;-49
2021/07/12 06:05:31;;;;;;;23.95;14.23;;;;;;;;;;5981899;23;20065;-53
2021/07/12 06:07:59;;;;;;;43.75;21.67;;;;;;;;;;5972491;23;20027;-54
2021/07/12 06:10:25;;;;;;;29.43;15.47;;;;;;;;;;5965779;24;20128;-50
2021/07/12 06:12:52;;;;;;;25.88;13.48;;;;;;;;;;5961810;24;20159;-53
2021/07/12 06:15:19;;;;;;;25.20;13.02;;;;;;;;;;5988983;23;20045;-51
2021/07/12 06:17:45;;;;;;;23.25;12.43;;;;;;;;;;5961355;24;20039;-49
2021/07/12 06:20:15;;;;;;;26.60;11.82;;;;;;;;;;5965754;24;20075;-50
2021/07/12 06:22:42;;;;;;;23.20;12.90;;;;;;;;;;5966908;23;20038;-51
2021/07/12 06:25:10;;;;;;;25.08;14.57;;;;;;;;;;5965722;23;20034;-56
2021/07/12 06:27:37;;;;;;;24.67;12.32;;;;;;;;;;5965575;24;20161;-48
2021/07/12 06:30:04;;;;;;;24.05;13.25;;;;;;;;;;5960603;24;20041;-49
2021/07/12 06:32:31;;;;;;;22.45;12.55;;;;;;;;;;5967115;24;20038;-51
2021/07/12 06:34:59;;;;;;;24.10;11.43;;;;;;;;;;5962873;24;20034;-52
2021/07/12 06:37:26;;;;;;;21.40;11.63;;;;;;;;;;5965874;24;20034;-52
2021/07/12 06:39:53;;;;;;;19.70;12.00;;;;;;;;;;5964549;24;20050;-50
2021/07/12 06:42:21;;;;;;;19.95;10.98;;;;;;;;;;5968936;23;20030;-50
2021/07/12 06:44:47;;;;;;;31.55;12.02;;;;;;;;;;5964614;24;20030;-52
2021/07/12 06:47:14;;;;;;;21.52;12.80;;;;;;;;;;5964973;24;20107;-57
2021/07/12 06:49:44;;;;;;;25.77;12.43;;;;;;;;;;5962356;24;20040;-51
2021/07/12 06:52:10;;;;;;;17.92;10.95;;;;;;;;;;5987804;23;20045;-55
2021/07/12 06:54:37;;;;;;;558.42;31.15;;;;;;;;;;5964377;23;20045;-54
2021/07/12 06:57:04;;;;;;;25.75;12.00;;;;;;;;;;5963378;23;20030;-53
2021/07/12 06:59:32;;;;;;;31.38;12.60;;;;;;;;;;5962701;23;20112;-53
2021/07/12 07:01:58;;;;;;;24.73;12.07;;;;;;;;;;5988310;23;20086;-52
2021/07/12 07:04:24;;;;;;;23.13;11.00;;;;;;;;;;5988680;23;20033;-54
2021/07/12 07:06:51;;;;;;;21.10;12.23;;;;;;;;;;5963812;23;20113;-52
2021/07/12 07:09:18;;;;;;;18.83;12.00;;;;;;;;;;5964069;23;20062;-53
2021/07/12 07:11:44;;;;;;;25.77;12.40;;;;;;;;;;5962142;23;20121;-53
2021/07/12 07:14:11;;;;;;;25.52;12.98;;;;;;;;;;5965421;23;20046;-56
2021/07/12 07:16:39;;;;;;;20.10;11.30;;;;;;;;;;5962744;23;20074;-55
2021/07/12 07:19:07;;;;;;;31.20;13.80;;;;;;;;;;5964396;23;20042;-53
2021/07/12 07:21:33;;;;;;;37.50;13.15;;;;;;;;;;5962766;24;20038;-54
2021/07/12 07:24:00;;;;;;;34.70;13.00;;;;;;;;;;5965794;24;20157;-53
2021/07/12 07:26:26;;;;;;;22.80;11.93;;;;;;;;;;5950325;24;20034;-56
2021/07/12 07:28:55;;;;;;;19.90;11.48;;;;;;;;;;5965488;24;20053;-55
2021/07/12 07:31:22;;;;;;;22.60;11.30;;;;;;;;;;5962880;23;20062;-52
2021/07/12 07:33:50;;;;;;;20.50;11.00;;;;;;;;;;5965618;24;20046;-52
2021/07/12 07:36:17;;;;;;;23.73;11.68;;;;;;;;;;5962141;24;20050;-54
2021/07/12 07:38:44;;;;;;;21.20;12.07;;;;;;;;;;5966646;23;20035;-53
2021/07/12 07:41:11;;;;;;;20.90;12.75;;;;;;;;;;5963547;24;20042;-51
2021/07/12 07:43:39;;;;;;;26.77;12.70;;;;;;;;;;5966902;23;20067;-50
2021/07/12 07:46:06;;;;;;;22.17;11.52;;;;;;;;;;5963960;24;20078;-54
2021/07/12 07:48:32;;;;;;;21.48;12.60;;;;;;;;;;5965547;24;20046;-50
2021/07/12 07:51:00;;;;;;;17.85;10.65;;;;;;;;;;5967702;23;20093;-54
2021/07/12 07:53:27;;;;;;;18.60;11.05;;;;;;;;;;5961059;23;20046;-54
2021/07/12 07:55:53;;;;;;;22.27;10.55;;;;;;;;;;5963143;24;20027;-52
2021/07/12 07:58:23;;;;;;;22.00;10.82;;;;;;;;;;5964368;23;20042;-50
2021/07/12 08:00:49;;;;;;;23.17;11.02;;;;;;;;;;5965284;24;20037;-55
2021/07/12 08:03:16;;;;;;;21.65;10.93;;;;;;;;;;5962554;24;20042;-52
2021/07/12 08:05:42;;;;;;;18.83;9.32;;;;;;;;;;5965313;24;20116;-49
2021/07/12 08:08:10;;;;;;;16.73;9.93;;;;;;;;;;5960832;24;20061;-52
2021/07/12 08:10:37;;;;;;;17.20;9.60;;;;;;;;;;5966118;24;20044;-48
2021/07/12 08:13:06;;;;;;;19.88;9.88;;;;;;;;;;5961606;24;20045;-53
2021/07/12 08:15:33;;;;;;;16.00;8.45;;;;;;;;;;5965781;24;20054;-49
2021/07/12 08:18:00;;;;;;;17.20;8.65;;;;;;;;;;5964080;24;20062;-53
2021/07/12 08:20:27;;;;;;;17.67;9.18;;;;;;;;;;5988793;23;20044;-50
2021/07/12 08:22:55;;;;;;;16.33;8.40;;;;;;;;;;5986692;23;20034;-56
2021/07/12 08:25:23;;;;;;;16.77;8.80;;;;;;;;;;5964532;24;20026;-51
2021/07/12 08:27:51;;;;;;;13.85;7.60;;;;;;;;;;5962887;24;20034;-54
2021/07/12 08:30:20;;;;;;;14.73;7.43;;;;;;;;;;5965950;24;20034;-57
2021/07/12 08:32:47;;;;;;;17.67;8.38;;;;;;;;;;5962809;24;20023;-53
2021/07/12 08:35:14;;;;;;;19.73;8.35;;;;;;;;;;5982173;23;20038;-55
2021/07/12 08:37:41;;;;;;;13.70;7.78;;;;;;;;;;5936392;24;20031;-57
2021/07/12 08:40:09;;;;;;;14.07;8.10;;;;;;;;;;5961730;23;20038;-55
2021/07/12 08:42:36;;;;;;;15.38;8.30;;;;;;;;;;5987782;23;20026;-55
2021/07/12 08:45:03;;;;;;;14.82;8.00;;;;;;;;;;5962105;24;20034;-51
2021/07/12 08:47:30;;;;;;;18.23;8.32;;;;;;;;;;5966457;23;20030;-53
2021/07/12 08:49:57;;;;;;;13.30;6.90;;;;;;;;;;5960604;24;20045;-50
2021/07/12 08:52:23;;;;;;;16.75;7.82;;;;;;;;;;5965032;24;20053;-58
2021/07/12 08:54:50;;;;;;;10.52;4.57;;;;;;;;;;5963838;23;20033;-54
2021/07/12 08:57:16;;;;;;;14.32;7.53;;;;;;;;;;5985776;23;20058;-57
2021/07/12 08:59:46;;;;;;;12.68;7.07;;;;;;;;;;5961392;24;20030;-57
2021/07/12 09:02:14;;;;;;;12.30;5.82;;;;;;;;;;5986636;23;20112;-55
2021/07/12 09:04:41;;;;;;;10.73;5.68;;;;;;;;;;5985701;23;20038;-56
2021/07/12 09:07:08;;;;;;;13.80;6.10;;;;;;;;;;5964131;24;20125;-53
2021/07/12 09:09:35;;;;;;;14.02;6.80;;;;;;;;;;5962908;23;20042;-51
2021/07/12 09:12:15;;;;;;;13.18;6.60;;;;;;;;;;5967594;24;20042;-53
2021/07/12 09:14:42;;;;;;;13.35;6.43;;;;;;;;;;5986625;23;20053;-53
2021/07/12 09:17:11;;;;;;;13.43;7.15;;;;;;;;;;5963781;23;20035;-52
2021/07/12 09:19:39;;;;;;;16.95;6.55;;;;;;;;;;5965138;23;20065;-51
2021/07/12 09:22:05;;;;;;;;;;;;;;;;;;5988089;23;20061;-53
2021/07/12 09:24:35;;;;;;;14.23;6.63;;;;;;;;;;5964302;23;19942;-51
2021/07/12 09:27:04;;;;;;;16.63;6.03;;;;;;;;;;5962239;23;20041;-52
2021/07/12 09:29:32;;;;;;;11.13;5.88;;;;;;;;;;5964270;23;20027;-52
2021/07/12 09:31:59;;;;;;;;;;;;;;;;;;5963430;23;20038;-51
2021/07/12 09:34:27;;;;;;;11.00;4.75;;;;;;;;;;5964860;23;19916;-53
2021/07/12 09:36:54;;;;;;;12.75;5.88;;;;;;;;;;5943828;24;20189;-54
2021/07/12 09:39:29;;;;;;;9.40;5.05;;;;;;;;;;5915865;24;20034;-53
2021/07/12 09:41:59;;;;;;;10.13;5.18;;;;;;;;;;5937024;24;20035;-54
2021/07/12 09:44:27;;;;;;;8.88;5.07;;;;;;;;;;5939504;24;20113;-51
2021/07/12 09:46:55;;;;;;;11.30;4.68;;;;;;;;;;5911814;24;20054;-55
2021/07/12 09:49:23;;;;;;;14.00;5.60;;;;;;;;;;5915751;24;20035;-55
2021/07/12 09:51:55;;;;;;;10.18;5.20;;;;;;;;;;5913051;24;20046;-52
2021/07/12 09:54:22;;;;;;;10.63;5.40;;;;;;;;;;5915633;24;20053;-53
2021/07/12 09:56:50;;;;;;;10.07;5.78;;;;;;;;;;5938543;24;20031;-55
2021/07/12 09:59:17;;;;;;;12.50;5.65;;;;;;;;;;5916323;24;20034;-55
2021/07/12 10:01:47;;;;;;;7.50;4.00;;;;;;;;;;5937044;24;20027;-52
2021/07/12 10:04:14;;;;;;;9.43;4.32;;;;;;;;;;5915270;24;20026;-54
2021/07/12 10:06:41;;;;;;;9.75;4.55;;;;;;;;;;5912604;24;20035;-54
2021/07/12 10:09:09;;;;;;;13.40;5.10;;;;;;;;;;5915616;24;20027;-53
2021/07/12 10:11:36;;;;;;;10.15;3.97;;;;;;;;;;5913580;24;20023;-54
2021/07/12 10:14:03;;;;;;;7.28;4.15;;;;;;;;;;5912873;24;20085;-52
2021/07/12 10:16:30;;;;;;;7.78;3.03;;;;;;;;;;5914616;24;20023;-55
2021/07/12 10:18:57;;;;;;;8.85;4.25;;;;;;;;;;5912229;24;20087;-53
2021/07/12 10:21:23;;;;;;;7.05;3.33;;;;;;;;;;5937306;24;20109;-52
2021/07/12 10:23:56;;;;;;;6.70;4.05;;;;;;;;;;5934925;24;20035;-52
2021/07/12 10:26:40;;;;;;;8.30;3.78;;;;;;;;;;5939139;24;20042;-54
2021/07/12 10:29:12;;;;;;;9.60;3.15;;;;;;;;;;5921250;24;20021;-53
2021/07/12 10:31:53;;;;;;;7.97;3.65;;;;;;;;;;5914319;24;20030;-54
2021/07/12 10:34:30;;;;;;;10.32;3.33;;;;;;;;;;5935398;24;20049;-55
2021/07/12 10:37:00;;;;;;;7.50;2.90;;;;;;;;;;5962255;23;20134;-56
2021/07/12 10:39:48;;;;;;;7.82;3.67;;;;;;;;;;5939572;23;20038;-55
2021/07/12 10:42:29;;;;;;;5.90;3.15;;;;;;;;;;5961074;24;20030;-55
2021/07/12 10:45:13;;;;;;;5.65;2.78;;;;;;;;;;5964248;23;20030;-54
2021/07/12 10:47:43;;;;;;;6.88;3.25;;;;;;;;;;5962727;24;20042;-56
2021/07/12 10:50:29;;;;;;;8.02;3.15;;;;;;;;;;5963946;23;20120;-57
2021/07/12 10:52:55;;;;;;;8.10;3.70;;;;;;;;;;5966760;23;20120;-55
2021/07/12 10:55:29;;;;;;;6.68;3.00;;;;;;;;;;5964978;23;20046;-55
2021/07/12 10:58:11;;;;;;;8.25;3.20;;;;;;;;;;5988545;23;20097;-57
2021/07/12 11:00:41;;;;;;;8.50;3.40;;;;;;;;;;5960555;24;20042;-53
2021/07/12 11:03:31;;;;;;;8.88;3.45;;;;;;;;;;5964756;24;20116;-54
2021/07/12 11:05:58;;;;;;;6.47;2.85;;;;;;;;;;5958524;23;20053;-56
2021/07/12 11:08:44;;;;;;;7.55;3.42;;;;;;;;;;5963690;23;20038;-54
2021/07/12 11:11:11;;;;;;;6.07;3.03;;;;;;;;;;5961408;24;20059;-54
2021/07/12 11:13:50;;;;;;;6.22;2.90;;;;;;;;;;5966765;24;20151;-56
2021/07/12 11:16:17;;;;;;;5.32;2.60;;;;;;;;;;5960702;24;20049;-52
2021/07/12 11:18:44;;;;;;;7.05;2.92;;;;;;;;;;5965514;24;20030;-56
2021/07/12 11:21:12;;;;;;;6.45;3.20;;;;;;;;;;5961641;24;20043;-53
2021/07/12 11:23:39;;;;;;;;;;;;;;;;;;5967926;24;20140;-56
2021/07/12 11:26:27;;;;;;;5.53;3.40;;;;;;;;;;5960764;24;19948;-56
2021/07/12 11:28:55;;;;;;;6.05;3.20;;;;;;;;;;5965770;24;20053;-53
2021/07/12 11:31:40;;;;;;;6.13;3.00;;;;;;;;;;5962868;24;20022;-58
2021/07/12 11:34:07;;;;;;;6.13;2.30;;;;;;;;;;5967997;24;20034;-52
2021/07/12 11:36:35;;;;;;;5.90;3.10;;;;;;;;;;5962446;24;20034;-52
2021/07/12 11:39:01;;;;;;;5.82;3.13;;;;;;;;;;5966237;24;20042;-56
2021/07/12 11:41:28;;;;;;;7.30;3.33;;;;;;;;;;5962144;24;20098;-56
2021/07/12 11:44:05;;;;;;;6.07;3.10;;;;;;;;;;5964940;24;20087;-55
2021/07/12 11:46:32;;;;;;;5.53;2.95;;;;;;;;;;5962557;24;20030;-57
2021/07/12 11:49:04;;;;;;;4.50;2.58;;;;;;;;;;5965290;24;20034;-54
2021/07/12 11:51:30;;;;;;;6.57;2.90;;;;;;;;;;5984693;23;20039;-57
2021/07/12 11:53:58;;;;;;;6.93;2.92;;;;;;;;;;5963951;23;20089;-54
2021/07/12 11:56:25;;;;;;;5.30;2.63;;;;;;;;;;5966317;23;20033;-53
2021/07/12 11:58:55;;;;;;;7.00;3.53;;;;;;;;;;5992835;23;20026;-55
2021/07/12 12:01:22;;;;;;;5.43;3.00;;;;;;;;;;5984893;23;20174;-57
2021/07/12 12:03:48;;;;;;;5.25;2.83;;;;;;;;;;5965866;24;20034;-55
2021/07/12 12:06:23;;;;;;;4.63;2.63;;;;;;;;;;5961091;24;20105;-55
2021/07/12 12:08:56;;;;;;;6.55;2.92;;;;;;;;;;5986274;23;20030;-55
2021/07/12 12:11:26;;;;;;;8.15;2.67;;;;;;;;;;5943380;23;20049;-57
2021/07/12 12:13:53;;;;;;;5.25;2.88;;;;;;;;;;5963558;23;20073;-58
2021/07/12 12:16:23;;;;;;;6.60;2.88;;;;;;;;;;5964289;23;20082;-58
2021/07/12 12:18:52;;;;;;;4.75;2.55;;;;;;;;;;5952050;23;20042;-55
2021/07/12 12:21:19;;;;;;;6.53;2.63;;;;;;;;;;5965159;24;20027;-56
2021/07/12 12:23:46;;;;;;;4.68;2.50;;;;;;;;;;5961736;23;20048;-54
2021/07/12 12:26:15;;;;;;;4.70;2.50;;;;;;;;;;5964794;24;20044;-56
2021/07/12 12:28:45;;;;;;;6.57;2.70;;;;;;;;;;5960419;24;20041;-55
2021/07/12 12:31:12;;;;;;;4.85;2.65;;;;;;;;;;5967452;23;20042;-56
2021/07/12 12:33:39;;;;;;;5.65;2.72;;;;;;;;;;5964874;23;20074;-55
2021/07/12 12:36:07;;;;;;;4.45;2.53;;;;;;;;;;5967460;23;20041;-52
2021/07/12 12:38:34;;;;;;;6.43;2.90;;;;;;;;;;5986896;23;20049;-54
2021/07/12 12:41:05;;;;;;;6.55;3.17;;;;;;;;;;5987866;23;20061;-56
2021/07/12 12:43:32;;;;;;;4.57;2.70;;;;;;;;;;5962545;24;20038;-56
2021/07/12 12:46:01;;;;;;;4.95;2.58;;;;;;;;;;5964026;24;20034;-56
2021/07/12 12:48:36;;;;;;;8.45;2.80;;;;;;;;;;5961482;24;20062;-55
2021/07/12 12:51:18;;;;;;;6.32;2.97;;;;;;;;;;5965284;24;20038;-56
2021/07/12 12:53:44;;;;;;;5.65;2.65;;;;;;;;;;5985476;23;20041;-55
2021/07/12 12:56:11;;;;;;;6.63;2.75;;;;;;;;;;5966555;23;20042;-56
2021/07/12 12:58:39;;;;;;;6.38;3.50;;;;;;;;;;5963652;24;20030;-56
2021/07/12 13:01:05;;;;;;;;;;;;;;;;;;5988737;23;20034;-56
2021/07/12 13:03:33;;;;;;;7.65;3.47;;;;;;;;;;5962520;23;20004;-55
2021/07/12 13:06:00;;;;;;;8.82;3.83;;;;;;;;;;5989249;23;20022;-56
2021/07/12 13:08:26;;;;;;;13.38;4.47;;;;;;;;;;5967874;23;20022;-54
2021/07/12 13:10:56;;;;;;;8.30;3.75;;;;;;;;;;5968394;23;20034;-50
2021/07/12 13:13:26;;;;;;;8.13;3.92;;;;;;;;;;5967085;24;20039;-52
2021/07/12 13:15:53;;;;;;;7.32;3.65;;;;;;;;;;5960880;24;20050;-57
2021/07/12 13:18:19;;;;;;;7.80;3.88;;;;;;;;;;5966302;24;20031;-53
2021/07/12 13:20:47;;;;;;;9.13;4.15;;;;;;;;;;5962191;24;20053;-58
2021/07/12 13:23:14;;;;;;;10.63;4.22;;;;;;;;;;5966711;23;20026;-55
2021/07/12 13:25:42;;;;;;;8.35;4.45;;;;;;;;;;5964725;23;20030;-57
2021/07/12 13:28:10;;;;;;;11.20;4.20;;;;;;;;;;5986486;23;20041;-56
2021/07/12 13:30:40;;;;;;;7.65;4.35;;;;;;;;;;5963454;23;20034;-57
2021/07/12 13:33:06;;;;;;;7.00;4.20;;;;;;;;;;5963892;24;20034;-56
2021/07/12 13:35:33;;;;;;;7.38;4.40;;;;;;;;;;5959623;24;20042;-58
2021/07/12 13:38:02;;;;;;;7.82;4.22;;;;;;;;;;5966401;23;20042;-57
2021/07/12 13:40:30;;;;;;;6.22;3.92;;;;;;;;;;5982600;23;20174;-55
2021/07/12 13:42:57;;;;;;;7.20;4.28;;;;;;;;;;5965040;23;20042;-55
2021/07/12 13:45:24;;;;;;;9.15;4.43;;;;;;;;;;5958533;23;20050;-57
2021/07/12 13:47:51;;;;;;;8.70;4.67;;;;;;;;;;5962798;23;20070;-52
2021/07/12 13:50:20;;;;;;;8.52;3.92;;;;;;;;;;5960470;23;20034;-56
2021/07/12 13:52:47;;;;;;;9.23;4.70;;;;;;;;;;5964265;23;20038;-56
2021/07/12 13:55:21;;;;;;;9.30;4.50;;;;;;;;;;5962489;23;20045;-56
2021/07/12 13:57:49;;;;;;;8.75;4.20;;;;;;;;;;5962879;23;20034;-56
2021/07/12 14:00:16;;;;;;;8.38;4.35;;;;;;;;;;5967659;23;20119;-57
2021/07/12 14:02:43;;;;;;;7.80;4.38;;;;;;;;;;5977440;23;20022;-57
2021/07/12 14:05:10;;;;;;;7.80;3.92;;;;;;;;;;5965309;24;20085;-57
2021/07/12 14:07:37;;;;;;;6.13;3.72;;;;;;;;;;5963098;24;20093;-57
2021/07/12 14:10:05;;;;;;;6.55;4.13;;;;;;;;;;5997560;23;20034;-56
2021/07/12 14:12:33;;;;;;;10.15;4.88;;;;;;;;;;5951390;24;20078;-55
2021/07/12 14:14:59;;;;;;;8.68;4.43;;;;;;;;;;5991619;23;20108;-52
2021/07/12 14:17:25;;;;;;;8.00;4.05;;;;;;;;;;5986192;23;20022;-57
2021/07/12 14:19:55;;;;;;;8.63;4.57;;;;;;;;;;5966426;24;20116;-53
2021/07/12 14:22:24;;;;;;;7.70;3.75;;;;;;;;;;5962635;24;20049;-58
2021/07/12 14:24:51;;;;;;;8.18;4.25;;;;;;;;;;5968663;23;20035;-58
2021/07/12 14:27:17;;;;;;;13.48;4.15;;;;;;;;;;5985912;23;20037;-56
2021/07/12 14:29:47;;;;;;;9.80;3.78;;;;;;;;;;5964237;24;20041;-55
2021/07/12 14:32:14;;;;;;;7.55;4.10;;;;;;;;;;5964862;23;20034;-57
2021/07/12 14:34:41;;;;;;;14.13;4.03;;;;;;;;;;5966981;23;20030;-57
2021/07/12 14:37:08;;;;;;;8.05;3.97;;;;;;;;;;5961583;24;20050;-57